createdAt,value
2018-06-19T00:02:14.626Z,60.31
2018-06-19T00:04:42.210Z,60.18
2018-06-19T00:07:10.518Z,60.57
2018-06-19T00:09:38.118Z,60.38
2018-06-19T00:12:05.694Z,60.20
2018-06-19T00:14:34.194Z,60.83
2018-06-19T00:17:02.395Z,60.31
2018-06-19T00:19:30.650Z,60.49
2018-06-19T00:21:58.264Z,60.78
2018-06-19T00:24:25.886Z,60.68
2018-06-19T00:26:53.755Z,60.76
2018-06-19T00:29:21.365Z,59.99
2018-06-19T00:31:48.932Z,60.75
2018-06-19T00:34:16.813Z,59.96
2018-06-19T00:36:44.398Z,60.23
2018-06-19T00:39:13.260Z,60.04
2018-06-19T00:41:41.780Z,59.52
2018-06-19T00:44:10.162Z,59.68
2018-06-19T00:46:37.754Z,59.35
2018-06-19T00:49:05.314Z,60.22
2018-06-19T00:51:32.934Z,59.43
2018-06-19T00:54:00.786Z,59.54
2018-06-19T00:56:28.417Z,60.12
2018-06-19T00:58:56.040Z,60.56
2018-06-19T01:01:23.650Z,59.49
2018-06-19T01:03:51.534Z,60.08
2018-06-19T01:06:19.121Z,59.90
2018-06-19T01:08:46.702Z,59.63
2018-06-19T01:11:14.970Z,59.88
2018-06-19T01:13:42.838Z,60.32
2018-06-19T01:16:10.414Z,59.71
2018-06-19T01:18:38.671Z,59.77
2018-06-19T01:21:07.066Z,59.50
2018-06-19T01:23:34.690Z,60.11
2018-06-19T01:26:02.257Z,59.24
2018-06-19T01:28:29.867Z,60.08
2018-06-19T01:30:57.725Z,59.37
2018-06-19T01:33:25.310Z,59.42
2018-06-19T01:35:54.301Z,60.07
2018-06-19T01:38:21.875Z,60.08
2018-06-19T01:40:49.845Z,59.50
2018-06-19T01:43:17.446Z,60.28
2018-06-19T01:45:45.024Z,60.05
2018-06-19T01:48:12.656Z,60.19
2018-06-19T01:50:40.271Z,59.62
2018-06-19T01:53:07.851Z,59.88
2018-06-19T01:55:35.705Z,60.37
2018-06-19T01:58:03.305Z,60.45
2018-06-19T02:00:30.899Z,60.45
2018-06-19T02:02:58.494Z,60.11
2018-06-19T02:05:26.382Z,60.29
2018-06-19T02:07:53.986Z,60.79
2018-06-19T02:10:21.583Z,60.24
2018-06-19T02:12:49.146Z,60.69
2018-06-19T02:15:17.014Z,61.16
2018-06-19T02:17:44.658Z,60.59
2018-06-19T02:20:12.251Z,60.70
2018-06-19T02:22:39.819Z,60.64
2018-06-19T02:25:07.889Z,60.90
2018-06-19T02:27:35.462Z,60.96
2018-06-19T02:30:03.051Z,61.29
2018-06-19T02:32:30.882Z,61.55
2018-06-19T02:34:58.529Z,61.13
2018-06-19T02:37:26.106Z,60.62
2018-06-19T02:39:53.679Z,61.20
2018-06-19T02:42:21.527Z,61.54
2018-06-19T02:44:49.099Z,61.56
2018-06-19T02:47:16.691Z,61.13
2018-06-19T02:49:44.535Z,61.37
2018-06-19T02:52:12.264Z,61.69
2018-06-19T02:54:40.498Z,61.09
2018-06-19T02:57:08.542Z,61.82
2018-06-19T02:59:36.651Z,61.10
2018-06-19T03:02:04.426Z,61.12
2018-06-19T03:04:32.074Z,60.82
2018-06-19T03:06:59.952Z,61.29
2018-06-19T03:09:27.540Z,60.97
2018-06-19T03:11:55.110Z,60.68
2018-06-19T03:14:22.970Z,60.84
2018-06-19T03:16:50.546Z,60.50
2018-06-19T03:19:18.209Z,61.49
2018-06-19T03:21:45.786Z,60.89
2018-06-19T03:24:13.634Z,61.31
2018-06-19T03:26:41.211Z,60.72
2018-06-19T03:29:09.738Z,60.85
2018-06-19T03:31:37.563Z,61.54
2018-06-19T03:34:05.396Z,60.99
2018-06-19T03:36:33.630Z,61.44
2018-06-19T03:39:01.554Z,61.68
2018-06-19T03:41:29.155Z,61.10
2018-06-19T03:43:57.209Z,60.94
2018-06-19T03:46:24.758Z,61.01
2018-06-19T03:48:52.358Z,61.12
2018-06-19T03:51:20.870Z,61.62
2018-06-19T03:53:48.766Z,61.14
2018-06-19T03:56:16.325Z,60.79
2018-06-19T03:58:43.931Z,60.81
2018-06-19T04:01:11.506Z,61.33
2018-06-19T04:03:39.545Z,61.51
2018-06-19T04:06:07.901Z,61.57
2018-06-19T04:08:35.488Z,60.72
2018-06-19T04:11:03.089Z,61.02
2018-06-19T04:13:31.005Z,61.64
2018-06-19T04:15:59.091Z,61.71
2018-06-19T04:18:26.673Z,61.53
2018-06-19T04:20:55.154Z,61.64
2018-06-19T04:23:23.345Z,60.89
2018-06-19T04:25:51.739Z,60.95
2018-06-19T04:28:19.593Z,61.62
2018-06-19T04:30:47.154Z,61.21
2018-06-19T04:33:14.750Z,61.57
2018-06-19T04:35:42.702Z,62.09
2018-06-19T04:38:10.261Z,61.96
2018-06-19T04:40:37.830Z,61.33
2018-06-19T04:43:05.679Z,61.37
2018-06-19T04:45:33.234Z,62.06
2018-06-19T04:48:00.795Z,61.48
2018-06-19T04:50:28.346Z,61.66
2018-06-19T04:52:57.908Z,61.32
2018-06-19T04:55:25.918Z,61.88
2018-06-19T04:57:53.514Z,61.49
2018-06-19T05:00:21.090Z,61.77
2018-06-19T05:02:48.938Z,62.10
2018-06-19T05:05:16.489Z,61.60
2018-06-19T05:07:44.066Z,61.81
2018-06-19T05:10:11.919Z,62.44
2018-06-19T05:12:39.494Z,61.73
2018-06-19T05:15:07.078Z,62.17
2018-06-19T05:17:34.946Z,61.92
2018-06-19T05:20:03.119Z,62.40
2018-06-19T05:22:31.585Z,62.42
2018-06-19T05:24:59.419Z,62.05
2018-06-19T05:27:26.982Z,62.88
2018-06-19T05:29:57.545Z,62.75
2018-06-19T05:32:25.450Z,62.91
2018-06-19T05:34:54.679Z,62.97
2018-06-19T05:37:22.266Z,62.90
2018-06-19T05:39:50.150Z,62.18
2018-06-19T05:42:17.738Z,63.13
2018-06-19T05:44:46.206Z,62.54
2018-06-19T05:47:14.369Z,62.87
2018-06-19T05:49:41.967Z,63.11
2018-06-19T05:52:09.558Z,63.14
2018-06-19T05:54:37.459Z,63.02
2018-06-19T05:57:05.714Z,62.76
2018-06-19T05:59:33.322Z,62.52
2018-06-19T06:02:01.219Z,62.70
2018-06-19T06:04:28.819Z,62.63
2018-06-19T06:06:56.419Z,62.96
2018-06-19T06:09:24.279Z,63.47
2018-06-19T06:11:51.855Z,63.32
2018-06-19T06:14:19.466Z,63.43
2018-06-19T06:16:47.659Z,62.73
2018-06-19T06:19:16.276Z,63.07
2018-06-19T06:21:43.846Z,62.99
2018-06-19T06:24:13.311Z,63.02
2018-06-19T06:26:40.874Z,63.28
2018-06-19T06:29:08.677Z,63.37
2018-06-19T06:31:37.384Z,63.78
2018-06-19T06:34:04.974Z,63.21
2018-06-19T06:36:32.594Z,63.37
2018-06-19T06:39:00.498Z,64.16
2018-06-19T06:41:28.084Z,63.60
2018-06-19T06:43:56.837Z,64.34
2018-06-19T06:46:25.625Z,64.27
2018-06-19T06:48:53.331Z,63.75
2018-06-19T06:51:20.995Z,63.96
2018-06-19T06:53:49.742Z,63.94
2018-06-19T06:56:17.338Z,64.50
2018-06-19T06:58:45.978Z,64.92
2018-06-19T07:01:13.946Z,65.05
2018-06-19T07:03:41.589Z,64.64
2018-06-19T07:06:09.198Z,64.64
2018-06-19T07:08:37.118Z,64.86
2018-06-19T07:11:04.735Z,65.71
2018-06-19T07:13:32.352Z,66.18
2018-06-19T07:16:00.348Z,65.82
2018-06-19T07:18:27.946Z,66.09
2018-06-19T07:20:57.220Z,65.93
2018-06-19T07:23:25.083Z,66.93
2018-06-19T07:25:52.740Z,66.15
2018-06-19T07:28:20.374Z,66.88
2018-06-19T07:30:49.112Z,66.98
2018-06-19T07:33:16.731Z,67.33
2018-06-19T07:35:44.369Z,66.40
2018-06-19T07:38:13.125Z,66.40
2018-06-19T07:40:41.479Z,67.36
2018-06-19T07:43:11.908Z,67.33
2018-06-19T07:45:39.842Z,66.79
2018-06-19T07:48:09.050Z,67.36
2018-06-19T07:50:36.652Z,67.20
2018-06-19T07:53:04.579Z,67.64
2018-06-19T07:55:32.961Z,67.45
2018-06-19T07:58:00.564Z,67.09
2018-06-19T08:00:28.427Z,66.87
2018-06-19T08:02:56.559Z,67.46
2018-06-19T08:05:25.858Z,66.98
2018-06-19T08:07:53.714Z,67.38
2018-06-19T08:10:21.305Z,67.55
2018-06-19T08:12:49.618Z,67.50
2018-06-19T08:15:17.787Z,67.50
2018-06-19T08:17:45.446Z,67.31
2018-06-19T08:20:13.386Z,67.38
2018-06-19T08:22:42.465Z,66.99
2018-06-19T08:25:11.363Z,67.70
2018-06-19T08:27:38.962Z,67.18
2018-06-19T08:30:07.797Z,67.39
2018-06-19T08:32:35.398Z,67.86
2018-06-19T08:35:02.993Z,67.48
2018-06-19T08:37:32.232Z,67.46
2018-06-19T08:39:59.848Z,67.49
2018-06-19T08:42:28.349Z,67.51
2018-06-19T08:44:58.230Z,68.15
2018-06-19T08:47:25.801Z,68.17
2018-06-19T08:49:56.750Z,67.88
2018-06-19T08:52:24.449Z,68.08
2018-06-19T08:54:53.209Z,67.85
2018-06-19T08:57:21.099Z,67.80
2018-06-19T08:59:48.739Z,67.58
2018-06-19T09:02:16.330Z,67.13
2018-06-19T09:04:44.173Z,67.39
2018-06-19T09:07:11.750Z,68.05
2018-06-19T09:09:39.325Z,68.11
2018-06-19T09:12:07.257Z,67.46
2018-06-19T09:14:35.100Z,67.60
2018-06-19T09:17:02.712Z,67.94
2018-06-19T09:19:31.086Z,67.73
2018-06-19T09:21:59.315Z,67.86
2018-06-19T09:24:27.618Z,68.00
2018-06-19T09:26:55.494Z,68.61
2018-06-19T09:29:23.342Z,68.61
2018-06-19T09:31:50.919Z,68.80
2018-06-19T09:34:19.630Z,69.44
2018-06-19T09:36:47.317Z,69.41
2018-06-19T09:39:15.076Z,69.58
2018-06-19T09:41:46.120Z,69.97
2018-06-19T09:44:16.657Z,70.09
2018-06-19T09:46:45.650Z,70.14
2018-06-19T09:49:13.546Z,70.05
2018-06-19T09:51:42.855Z,69.93
2018-06-19T09:54:10.449Z,70.18
2018-06-19T09:56:39.349Z,69.79
2018-06-19T09:59:06.970Z,70.01
2018-06-19T10:01:34.854Z,69.87
2018-06-19T10:04:02.745Z,70.51
2018-06-19T10:06:30.399Z,70.42
2018-06-19T10:08:58.700Z,70.47
2018-06-19T10:11:27.094Z,70.18
2018-06-19T10:13:54.778Z,70.68
2018-06-19T10:16:23.008Z,70.59
2018-06-19T10:18:51.044Z,70.93
2018-06-19T10:21:19.415Z,71.29
2018-06-19T10:23:47.181Z,70.83
2018-06-19T10:26:15.105Z,70.83
2018-06-19T10:28:43.527Z,70.17
2018-06-19T10:31:11.950Z,71.08
2018-06-19T10:33:40.450Z,70.25
2018-06-19T10:36:08.043Z,70.99
2018-06-19T10:38:35.666Z,71.02
2018-06-19T10:41:03.601Z,70.79
2018-06-19T10:43:31.265Z,71.11
2018-06-19T10:45:59.926Z,71.00
2018-06-19T10:48:28.506Z,71.08
2018-06-19T10:50:57.390Z,71.20
2018-06-19T10:53:28.954Z,71.37
2018-06-19T10:55:57.150Z,70.60
2018-06-19T10:58:24.726Z,70.69
2018-06-19T11:00:54.199Z,71.50
2018-06-19T11:03:23.018Z,70.78
2018-06-19T11:05:50.667Z,71.30
2018-06-19T11:08:18.288Z,70.95
2018-06-19T11:10:46.432Z,71.06
2018-06-19T11:13:14.730Z,71.18
2018-06-19T11:15:43.519Z,70.37
2018-06-19T11:18:11.393Z,70.02
2018-06-19T11:20:38.986Z,70.30
2018-06-19T11:23:06.577Z,69.66
2018-06-19T11:25:34.475Z,70.37
2018-06-19T11:28:05.207Z,69.67
2018-06-19T11:30:33.784Z,70.04
2018-06-19T11:33:02.742Z,69.27
2018-06-19T11:35:30.522Z,69.76
2018-06-19T11:38:00.261Z,69.78
2018-06-19T11:40:28.286Z,69.22
2018-06-19T11:42:57.066Z,69.54
2018-06-19T11:45:25.338Z,69.64
2018-06-19T11:47:53.507Z,69.51
2018-06-19T11:50:22.254Z,68.93
2018-06-19T11:52:51.410Z,68.75
2018-06-19T11:55:19.546Z,68.61
2018-06-19T11:57:47.664Z,68.79
2018-06-19T12:00:15.298Z,68.47
2018-06-19T12:02:43.191Z,69.09
2018-06-19T12:05:10.823Z,69.15
2018-06-19T12:07:40.184Z,69.00
2018-06-19T12:10:08.226Z,68.04
2018-06-19T12:12:35.858Z,68.04
2018-06-19T12:15:03.534Z,67.98
2018-06-19T12:17:32.618Z,67.86
2018-06-19T12:20:01.166Z,67.68
2018-06-19T12:22:29.627Z,68.05
2018-06-19T12:24:57.502Z,68.18
2018-06-19T12:27:25.191Z,67.64
2018-06-19T12:29:52.911Z,67.54
2018-06-19T12:32:22.501Z,67.61
2018-06-19T12:34:51.191Z,67.72
2018-06-19T12:37:18.816Z,68.08
2018-06-19T12:39:47.850Z,67.66
2018-06-19T12:42:20.245Z,67.63
2018-06-19T12:44:49.671Z,67.55
2018-06-19T12:47:18.567Z,66.75
2018-06-19T12:52:31.639Z,67.18
2018-06-19T12:54:59.251Z,66.71
2018-06-19T12:57:28.050Z,66.40
2018-06-19T12:59:55.991Z,66.24
2018-06-19T13:02:23.579Z,66.24
2018-06-19T13:04:53.520Z,66.18
2018-06-19T13:07:22.152Z,66.40
2018-06-19T13:09:49.735Z,66.30
2018-06-19T13:12:18.362Z,66.30
2018-06-19T13:14:47.116Z,65.31
2018-06-19T13:17:14.762Z,65.63
2018-06-19T13:19:43.462Z,66.04
2018-06-19T13:22:11.336Z,66.41
2018-06-19T13:24:40.374Z,65.59
2018-06-19T13:27:07.972Z,65.99
2018-06-19T13:29:36.367Z,66.03
2018-06-19T13:32:05.273Z,65.28
2018-06-19T13:34:33.855Z,64.91
2018-06-19T13:37:03.191Z,64.75
2018-06-19T13:39:30.759Z,64.56
2018-06-19T13:41:58.360Z,65.30
2018-06-19T13:44:27.091Z,64.76
2018-06-19T13:46:54.675Z,64.72
2018-06-19T13:49:24.152Z,64.94
2018-06-19T13:51:53.738Z,65.24
2018-06-19T13:54:23.230Z,64.91
2018-06-19T13:56:51.408Z,65.06
2018-06-19T13:59:21.561Z,64.55
2018-06-19T14:01:49.228Z,65.11
2018-06-19T14:04:16.827Z,65.11
2018-06-19T14:06:44.706Z,65.06
2018-06-19T14:09:12.347Z,64.74
2018-06-19T14:11:40.506Z,64.43
2018-06-19T14:14:10.370Z,64.21
2018-06-19T14:16:38.816Z,64.69
2018-06-19T14:19:06.439Z,63.88
2018-06-19T14:21:34.334Z,63.91
2018-06-19T14:24:01.919Z,63.80
2018-06-19T14:29:04.457Z,64.31
2018-06-19T14:31:33.468Z,63.50
2018-06-19T14:34:02.254Z,63.55
2018-06-19T14:36:30.886Z,63.59
2018-06-19T14:38:58.553Z,63.70
2018-06-19T14:41:26.406Z,62.98
2018-06-19T14:43:56.931Z,62.97
2018-06-19T14:46:25.744Z,62.71
2018-06-19T14:48:53.550Z,62.77
2018-06-19T14:51:23.557Z,62.12
2018-06-19T14:56:18.618Z,61.99
2018-06-19T14:58:46.590Z,62.44
2018-06-19T15:01:16.430Z,61.77
2018-06-19T15:03:44.639Z,61.77
2018-06-19T15:06:13.414Z,62.09
2018-06-19T15:08:41.982Z,62.14
2018-06-19T15:11:09.566Z,61.97
2018-06-19T15:13:40.210Z,61.97
2018-06-19T15:16:07.784Z,61.95
2018-06-19T15:18:35.414Z,61.54
2018-06-19T15:21:03.278Z,61.76
2018-06-19T15:23:31.563Z,61.89
2018-06-19T15:26:01.454Z,61.82
2018-06-19T15:28:31.309Z,61.92
2018-06-19T15:30:59.762Z,61.57
2018-06-19T15:33:27.347Z,61.44
2018-06-19T15:35:57.061Z,61.71
2018-06-19T15:38:25.410Z,61.78
2018-06-19T15:40:52.994Z,61.69
2018-06-19T15:43:20.922Z,61.29
2018-06-19T15:45:49.097Z,61.30
2018-06-19T15:48:17.844Z,62.00
2018-06-19T15:50:45.693Z,61.85
2018-06-19T15:53:14.399Z,61.37
2018-06-19T15:55:43.213Z,62.00
2018-06-19T15:58:11.901Z,61.44
2018-06-19T16:00:40.015Z,61.25
2018-06-19T16:03:07.617Z,61.23
2018-06-19T16:05:35.503Z,62.00
2018-06-19T16:08:08.138Z,62.11
2018-06-19T16:10:35.710Z,62.04
2018-06-19T16:13:25.347Z,62.14
2018-06-19T16:15:56.258Z,61.94
2018-06-19T16:18:24.819Z,61.22
2018-06-19T16:20:52.417Z,61.19
2018-06-19T16:23:20.218Z,61.89
2018-06-19T16:25:48.515Z,61.62
2018-06-19T16:28:16.254Z,62.03
2018-06-19T16:30:43.919Z,61.05
2018-06-19T16:33:11.895Z,61.23
2018-06-19T16:35:39.495Z,61.86
2018-06-19T16:38:09.552Z,61.16
2018-06-19T16:40:39.542Z,61.53
2018-06-19T16:43:10.770Z,61.65
2018-06-19T16:45:44.554Z,61.05
2018-06-19T16:48:12.197Z,61.31
2018-06-19T16:50:39.889Z,61.29
2018-06-19T16:53:07.870Z,61.69
2018-06-19T16:55:35.465Z,61.13
2018-06-19T16:58:03.732Z,61.87
2018-06-19T17:00:31.659Z,61.80
2018-06-19T17:02:59.460Z,61.46
2018-06-19T17:05:27.763Z,62.08
2018-06-19T17:07:57.449Z,61.29
2018-06-19T17:10:28.625Z,61.21
2018-06-19T17:12:57.742Z,61.90
2018-06-19T17:15:26.889Z,61.71
2018-06-19T17:18:00.540Z,61.97
2018-06-19T17:20:31.778Z,61.49
2018-06-19T17:23:01.392Z,61.89
2018-06-19T17:25:31.066Z,61.28
2018-06-19T17:27:58.675Z,61.52
2018-06-19T17:33:00.552Z,62.33
2018-06-19T17:35:28.446Z,61.58
2018-06-19T17:38:00.031Z,61.59
2018-06-19T17:40:28.446Z,61.52
2018-06-19T17:42:56.949Z,62.52
2018-06-19T17:45:25.698Z,61.90
2018-06-19T17:47:54.198Z,61.92
2018-06-19T17:50:22.399Z,62.42
2018-06-19T17:52:52.085Z,61.80
2018-06-19T17:55:19.675Z,62.25
2018-06-19T17:57:48.222Z,62.54
2018-06-19T18:00:16.162Z,62.60
2018-06-19T18:02:44.396Z,62.77
2018-06-19T18:05:11.980Z,62.68
2018-06-19T18:07:40.562Z,62.96
2018-06-19T18:10:08.154Z,63.04
2018-06-19T18:12:40.073Z,62.54
2018-06-19T18:15:08.072Z,62.40
2018-06-19T18:17:36.292Z,62.73
2018-06-19T18:20:04.780Z,63.09
2018-06-19T18:22:33.084Z,63.00
2018-06-19T18:25:01.421Z,63.10
2018-06-19T18:27:29.638Z,62.95
2018-06-19T18:29:59.195Z,62.36
2018-06-19T18:32:27.355Z,63.07
2018-06-19T18:34:56.240Z,62.88
2018-06-19T18:37:25.900Z,62.30
2018-06-19T18:39:54.011Z,63.20
2018-06-19T18:42:22.209Z,62.53
2018-06-19T18:44:50.662Z,63.27
2018-06-19T18:47:18.287Z,62.47
2018-06-19T18:49:46.653Z,63.13
2018-06-19T18:54:52.641Z,63.16
2018-06-19T18:57:23.419Z,62.78
2018-06-19T18:59:52.261Z,62.58
2018-06-19T19:02:20.593Z,62.72
2018-06-19T19:04:48.748Z,62.68
2018-06-19T19:07:16.602Z,63.31
2018-06-19T19:09:49.679Z,63.06
2018-06-19T19:12:17.527Z,63.19
2018-06-19T19:14:51.337Z,63.22
2018-06-19T19:17:23.982Z,63.54
2018-06-19T19:19:51.654Z,62.69
2018-06-19T19:22:20.206Z,62.97
2018-06-19T19:24:47.810Z,63.67
2018-06-19T19:27:20.538Z,63.60
2018-06-19T19:32:24.466Z,63.49
2018-06-19T19:34:55.262Z,63.74
2018-06-19T19:37:28.078Z,63.00
2018-06-19T19:39:55.674Z,63.18
2018-06-19T19:42:23.454Z,64.03
2018-06-19T19:44:51.334Z,63.90
2018-06-19T19:47:24.026Z,63.43
2018-06-19T19:49:52.302Z,64.08
2018-06-19T19:52:21.288Z,64.12
2018-06-19T19:54:50.493Z,64.20
2018-06-19T19:57:23.955Z,63.68
2018-06-19T19:59:52.897Z,63.78
2018-06-19T20:02:21.747Z,63.80
2018-06-19T20:04:49.757Z,63.97
2018-06-19T20:07:19.471Z,64.49
2018-06-19T20:09:47.623Z,64.75
2018-06-19T20:12:15.243Z,64.85
2018-06-19T20:14:48.157Z,64.67
2018-06-19T20:17:15.767Z,64.37
2018-06-19T20:19:44.562Z,64.46
2018-06-19T20:22:15.028Z,64.25
2018-06-19T20:24:46.434Z,64.41
2018-06-19T20:27:14.282Z,64.37
2018-06-19T20:29:44.551Z,64.71
2018-06-19T20:32:14.039Z,65.34
2018-06-19T20:34:41.883Z,64.45
2018-06-19T20:37:16.469Z,64.76
2018-06-19T20:39:46.421Z,65.10
2018-06-19T20:42:19.118Z,64.53
2018-06-19T20:44:46.723Z,64.58
2018-06-19T20:47:19.459Z,64.71
2018-06-19T20:49:51.005Z,65.31
2018-06-19T20:52:20.379Z,65.36
2018-06-19T20:54:52.323Z,64.97
2018-06-19T20:57:22.447Z,65.42
2018-06-19T20:59:50.108Z,64.64
2018-06-19T21:02:17.731Z,65.61
2018-06-19T21:04:45.630Z,65.58
2018-06-19T21:07:14.051Z,65.03
2018-06-19T21:12:41.626Z,65.66
2018-06-19T21:15:12.186Z,65.74
2018-06-19T21:17:41.625Z,65.78
2018-06-19T21:20:10.210Z,65.84
2018-06-19T21:22:37.850Z,65.29
2018-06-19T21:25:06.222Z,66.03
2018-06-19T21:27:34.079Z,65.27
2018-06-19T21:30:02.820Z,65.99
2018-06-19T21:32:31.793Z,66.20
2018-06-19T21:35:02.131Z,65.23
2018-06-19T21:37:30.270Z,65.93
2018-06-19T21:39:57.870Z,66.27
2018-06-19T21:42:25.902Z,65.67
2018-06-19T21:44:55.694Z,65.58
2018-06-19T21:47:26.469Z,66.15
2018-06-19T21:49:54.311Z,66.25
2018-06-19T21:52:24.366Z,66.55
2018-06-19T21:54:55.754Z,66.49
2018-06-19T21:57:23.655Z,65.86
2018-06-19T21:59:51.245Z,66.08
2018-06-19T22:02:25.887Z,66.15
2018-06-19T22:04:53.784Z,66.47
2018-06-19T22:07:21.590Z,66.62
2018-06-19T22:09:50.910Z,66.44
2018-06-19T22:12:20.090Z,65.98
2018-06-19T22:14:47.663Z,66.64
2018-06-19T22:17:15.389Z,66.65
2018-06-19T22:19:43.231Z,67.36
2018-06-19T22:22:10.799Z,67.24
2018-06-19T22:24:38.390Z,66.79
2018-06-19T22:27:06.249Z,67.51
2018-06-19T22:29:33.877Z,67.36
2018-06-19T22:32:01.643Z,66.79
2018-06-19T22:34:32.254Z,67.83
2018-06-19T22:37:00.938Z,67.21
2018-06-19T22:39:29.107Z,67.10
2018-06-19T22:41:58.478Z,67.64
2018-06-19T22:44:26.859Z,68.08
2018-06-19T22:46:55.498Z,67.28
2018-06-19T22:49:25.423Z,68.06
2018-06-19T22:51:53.023Z,67.26
2018-06-19T22:54:20.595Z,67.65
2018-06-19T22:56:48.486Z,68.07
2018-06-19T22:59:16.110Z,67.71
2018-06-19T23:01:44.226Z,68.04
2018-06-19T23:04:11.834Z,67.84
2018-06-19T23:06:40.368Z,67.91
2018-06-19T23:09:09.582Z,68.60
2018-06-19T23:11:38.129Z,68.40
2018-06-19T23:14:05.977Z,68.38
2018-06-19T23:16:33.566Z,68.13
2018-06-19T23:19:01.137Z,68.47
2018-06-19T23:21:28.719Z,68.74
2018-06-19T23:23:56.559Z,68.21
2018-06-19T23:26:24.421Z,68.09
2018-06-19T23:28:53.814Z,68.88
2018-06-19T23:31:22.470Z,68.75
2018-06-19T23:33:50.055Z,68.55
2018-06-19T23:36:18.492Z,68.41
2018-06-19T23:38:46.074Z,68.57
2018-06-19T23:41:14.702Z,68.35
2018-06-19T23:43:42.270Z,68.82
2018-06-19T23:46:09.859Z,69.26
2018-06-19T23:48:37.450Z,69.26
2018-06-19T23:51:05.310Z,69.29
2018-06-19T23:53:32.878Z,68.50
2018-06-19T23:56:00.451Z,68.62
2018-06-19T23:58:28.304Z,69.51
